Date,TemperatureHighF,TemperatureAvgF,TemperatureLowF,DewpointHighF,DewpointAvgF,DewpointLowF,HumidityHigh,HumidityAvg,HumidityLow,PressureMaxIn,PressureMinIn,WindSpeedMaxMPH,WindSpeedAvgMPH,GustSpeedMaxMPH,PrecipitationSumIn
2013-1-1,27.9,14.3,-4.8,25.6,10.5,-8.6,96,85,79,29.92,29.67,15,2,15,0.01
2013-1-2,15.8,4.4,-6.4,12.5,0.4,-10.8,92,83,77,30.22,29.87,18,2,18,0.02
2013-1-3,17.3,0.4,-15.5,13.8,-4.5,-19.8,92,80,61,30.24,29.96,9,0,9,0.00
2013-1-4,28.7,25.0,17.2,25.2,21.3,13.7,89,86,79,29.96,29.77,17,2,17,0.01
2013-1-5,29.2,22.6,10.7,25.0,16.7,7.6,89,78,64,30.20,29.78,21,3,21,0.01
2013-1-6,31.8,26.2,12.6,28.6,22.9,9.7,90,87,84,30.15,29.89,12,1,12,0.01
2013-1-7,32.0,20.1,11.5,28.6,15.5,8.3,89,82,69,30.33,29.92,13,2,13,0.00
2013-1-8,35.3,27.2,18.9,24.4,20.7,16.2,89,77,61,30.35,30.20,17,2,17,0.00
2013-1-9,41.1,29.7,14.9,30.5,22.1,12.2,92,75,51,30.35,29.93,21,2,21,0.00
2013-1-10,36.4,31.9,22.0,30.8,23.8,18.7,87,72,62,30.53,30.00,22,4,22,0.00
2013-1-11,39.2,30.3,18.3,35.7,24.1,15.4,90,78,60,30.53,30.09,21,3,21,0.03
2013-1-12,45.9,41.8,38.2,42.2,39.0,35.3,92,90,85,30.12,30.03,11,2,14,0.01
2013-1-13,41.2,38.1,37.1,38.8,35.9,34.7,93,92,90,30.08,30.03,5,1,5,0.00
2013-1-14,58.1,37.7,30.1,43.7,30.0,22.8,94,74,60,30.24,29.77,15,2,19,0.00
2013-1-15,31.2,28.5,24.7,23.2,21.5,19.3,85,75,63,30.29,30.19,6,0,7,0.00
2013-1-16,30.0,28.0,25.9,26.7,23.7,19.7,88,84,73,30.20,29.77,8,0,8,0.08
2013-1-17,30.0,21.0,8.0,26.1,14.6,-0.9,89,76,55,30.11,29.77,5,0,5,0.04
2013-1-18,17.9,6.8,-7.0,7.6,-3.1,-11.5,92,64,40,30.36,30.07,12,1,12,0.00
2013-1-19,41.4,30.6,17.8,24.3,18.3,7.5,86,61,48,30.26,29.74,18,3,18,0.01
2013-1-20,42.5,31.3,12.8,30.4,19.5,0.7,87,62,48,29.89,29.40,29,4,29,0.02
2013-1-21,18.1,11.4,-0.5,10.4,3.6,-5.2,83,71,52,30.02,29.77,9,0,9,0.00
2013-1-22,14.9,6.9,0.2,9.2,1.7,-5.7,85,79,60,30.04,29.76,14,1,16,0.01
2013-1-23,1.9,-6.5,-16.9,-4.2,-13.9,-21.9,79,70,54,30.17,30.02,14,2,15,0.00
2013-1-24,5.6,-5.8,-20.1,-6.5,-14.6,-25.3,92,66,47,30.36,30.16,18,2,18,0.00
2013-1-25,11.0,2.7,-9.6,1.7,-5.9,-14.6,91,67,49,30.38,30.10,14,1,14,0.00
2013-1-26,11.6,5.6,-5.7,4.2,-2.5,-10.0,92,70,42,30.29,30.07,18,3,18,0.00
2013-1-27,17.2,8.3,0.1,5.3,-1.9,-7.4,80,65,35,30.50,30.29,22,3,22,0.00
2013-1-28,21.2,12.2,0.1,18.0,8.0,-4.8,92,83,69,30.48,29.99,19,2,19,0.07
2013-1-29,34.7,27.6,21.1,31.9,24.2,17.8,91,87,81,30.15,29.97,22,3,22,0.00
2013-1-30,59.1,47.4,21.5,53.3,43.9,18.2,93,88,77,30.14,29.25,20,4,20,0.24
2013-1-31,59.0,38.5,19.9,53.1,32.0,8.7,92,78,53,29.90,28.78,26,4,26,0.78
2013-2-1,19.9,16.0,12.3,11.8,7.9,4.0,84,70,61,30.06,29.48,29,3,29,0.00
2013-2-2,17.2,12.7,4.9,12.5,7.2,0.9,87,79,63,30.16,30.02,17,1,17,0.00
2013-2-3,23.2,13.1,-0.5,12.4,7.1,-4.2,89,77,55,30.02,29.74,11,1,11,0.00
2013-2-4,22.2,14.9,4.2,12.9,4.6,-3.3,87,66,34,29.89,29.71,21,2,21,0.00
2013-2-5,19.4,10.9,-3.9,8.8,1.1,-7.8,83,66,46,30.01,29.89,10,0,10,0.00
2013-2-6,28.6,20.2,7.4,20.8,11.1,-3.7,92,69,46,30.32,29.87,19,2,19,0.00
2013-2-7,17.0,10.0,1.7,3.4,-1.8,-6.4,70,58,46,30.53,30.31,13,1,13,0.00
2013-2-8,21.4,18.3,14.3,17.7,13.4,1.4,88,81,50,30.41,29.86,48,9,59,0.10
2013-2-9,17.1,9.7,3.4,13.6,4.4,-3.3,87,79,66,30.34,29.86,23,5,23,0.02
2013-2-10,25.3,9.1,-7.3,10.9,1.0,-11.7,92,71,46,30.49,30.30,9,1,9,0.00
2013-2-11,40.2,33.6,10.7,36.8,24.2,3.3,91,72,26,30.29,29.59,22,3,22,0.12
2013-2-12,34.5,32.0,28.8,28.5,25.9,21.1,82,78,73,29.82,29.57,17,2,17,0.00
2013-2-13,34.3,29.3,24.8,23.6,21.4,17.2,83,73,51,29.81,29.72,9,1,9,0.00
2013-2-14,33.2,27.7,24.7,22.2,21.1,19.6,86,76,60,29.92,29.71,9,0,9,0.00
2013-2-15,38.4,34.4,26.3,30.1,25.5,19.2,86,70,54,29.92,29.83,15,3,15,0.00
2013-2-16,30.0,23.9,16.0,22.7,13.4,2.6,85,64,48,29.94,29.84,14,2,14,0.00
2013-2-17,16.0,14.4,12.6,3.6,2.9,1.8,63,60,56,29.85,29.76,15,5,15,0.00
2013-2-18,13.7,9.3,6.7,3.8,1.5,-0.8,81,70,59,29.88,29.64,11,7,25,0.00
2013-2-19,21.8,11.4,4.6,1.6,-1.5,-4.7,74,58,32,30.16,29.89,11,4,25,0.00
2013-2-20,37.8,22.2,8.7,20.5,13.8,1.8,83,71,35,30.15,29.56,15,2,27,0.10
2013-2-21,20.2,14.9,7.4,18.5,10.5,3.2,96,82,74,30.37,29.73,16,2,16,0.02
2013-2-22,33.3,25.8,13.0,23.5,19.0,9.6,88,76,63,30.42,30.21,21,2,21,0.00
2013-2-23,31.4,30.3,29.1,29.0,25.0,20.2,92,81,67,30.22,29.86,22,3,22,0.03
2013-2-24,35.7,31.2,28.3,31.0,27.8,25.3,90,87,82,29.92,29.73,13,2,13,0.04
2013-2-25,33.7,30.0,27.4,31.0,26.9,24.9,92,88,83,30.21,29.92,8,0,8,0.00
2013-2-26,37.7,32.3,26.9,29.2,27.2,24.6,92,82,68,30.29,30.05,32,3,32,0.00
2013-2-27,37.2,31.6,27.0,31.5,28.3,24.6,93,88,69,30.28,29.57,56,19,56,0.11
2013-2-28,40.6,33.9,29.5,36.5,30.4,26.1,93,87,71,30.00,29.53,43,4,56,0.11
2013-3-1,32.1,29.7,27.3,29.8,26.0,24.1,92,86,75,29.72,29.56,17,3,17,0.00
2013-3-2,27.7,25.7,20.0,25.0,22.6,17.0,90,88,81,29.73,29.69,0,0,0,0.05
2013-3-3,26.6,23.1,19.5,23.2,19.9,16.6,89,87,84,29.71,29.66,0,0,0,0.01
2013-3-4,26.0,22.5,20.5,21.9,19.5,18.0,91,88,81,29.87,29.67,0,0,0,0.02
2013-3-5,35.2,26.5,21.9,27.4,22.3,18.9,90,84,72,30.08,29.87,0,0,0,0.01
2013-3-6,36.0,32.4,22.9,29.6,25.6,20.3,92,76,61,30.16,30.05,0,0,0,0.00
2013-3-7,33.9,29.6,26.2,24.7,22.4,19.8,89,75,65,30.15,30.09,0,0,0,0.01
2013-3-8,37.5,28.6,20.8,26.1,23.2,17.5,92,81,63,30.29,30.09,0,0,0,0.01
2013-3-9,45.7,29.4,11.8,27.8,20.6,8.6,89,72,44,30.34,30.26,9,1,9,0.00
2013-3-10,52.7,40.9,22.5,26.4,21.1,14.7,86,49,22,30.32,30.13,16,2,16,0.00
2013-3-11,49.7,44.6,36.1,31.3,26.7,21.9,76,50,35,30.18,29.93,16,2,16,0.00
2013-3-12,50.6,46.3,34.5,46.0,41.3,31.2,91,83,54,29.95,29.63,23,3,23,0.95
2013-3-13,37.4,33.1,28.1,32.4,30.0,22.8,93,89,74,29.77,29.70,15,0,15,0.03
2013-3-14,29.8,21.2,13.4,23.9,15.5,8.1,87,79,61,29.87,29.70,21,3,21,0.03
2013-3-15,29.7,20.6,8.0,25.3,13.0,3.3,90,73,48,29.88,29.59,18,3,18,0.11
2013-3-16,25.4,20.4,10.6,19.8,13.4,7.0,87,75,55,29.89,29.72,15,2,15,0.00
2013-3-17,22.9,16.5,3.7,13.4,6.1,-1.2,88,65,45,30.34,29.88,21,3,21,0.00
2013-3-18,32.7,18.3,-1.5,19.4,2.6,-5.4,85,55,27,30.44,30.10,17,2,17,0.00
2013-3-19,28.6,26.2,23.7,25.6,23.1,19.3,91,88,80,30.10,29.66,45,12,45,0.16
2013-3-20,29.7,25.4,20.8,24.2,20.3,15.7,90,81,69,29.73,29.63,18,2,21,0.02
2013-3-21,32.3,24.8,14.0,19.6,15.5,10.6,88,69,47,29.72,29.61,14,1,14,0.00
2013-3-22,32.4,22.0,9.2,24.9,16.6,5.8,89,80,55,29.75,29.63,13,1,13,0.05
2013-3-23,32.4,27.7,22.3,22.8,20.4,17.9,89,75,57,29.80,29.66,22,4,25,0.00
2013-3-24,34.9,30.3,22.6,24.5,22.1,18.0,85,71,63,29.85,29.77,20,4,20,0.00
2013-3-25,39.9,30.9,18.9,27.6,22.7,15.5,90,72,48,29.79,29.54,15,2,15,0.00
2013-3-26,39.0,32.2,24.5,26.9,23.6,18.0,86,71,44,29.80,29.58,16,3,16,0.00
2013-3-27,42.9,33.1,22.3,30.0,25.0,18.8,92,73,51,29.92,29.77,21,2,21,0.00
2013-3-28,44.9,35.5,31.1,34.6,30.4,27.2,92,82,59,30.04,29.90,15,2,15,0.00
2013-3-29,42.2,35.0,29.9,35.1,31.4,27.3,91,87,68,30.06,30.00,7,0,11,0.06
2013-3-30,46.4,35.4,24.9,34.6,24.1,14.3,92,68,29,30.09,30.00,16,1,16,0.06
2013-3-31,50.7,38.7,24.4,35.5,24.4,15.1,92,60,29,30.09,29.69,17,2,18,0.03
2013-4-1,41.1,35.0,25.4,37.8,28.1,11.6,90,77,46,29.74,29.49,15,0,15,0.20
2013-4-2,29.7,25.2,20.8,15.5,12.0,9.5,64,57,46,29.88,29.74,0,0,0,0.00
2013-4-3,37.2,28.5,20.6,14.9,11.5,4.9,69,50,30,30.18,29.87,0,0,0,0.00
2013-4-4,45.7,33.7,17.1,22.4,17.1,12.0,83,52,36,30.25,29.92,14,2,18,0.00
2013-4-5,45.7,37.5,28.3,28.6,22.4,16.1,75,55,41,29.92,29.74,19,4,19,0.00
2013-4-6,36.6,27.6,19.8,17.0,10.1,3.6,73,49,28,30.28,29.92,26,5,26,0.00
2013-4-7,55.6,44.7,31.2,37.0,22.9,9.9,67,42,30,30.25,29.82,23,5,23,0.01
2013-4-8,53.4,44.7,37.6,37.6,32.6,29.5,79,63,45,30.08,29.87,20,3,21,0.00
2013-4-9,53.9,47.5,40.4,46.9,39.8,33.0,91,75,58,29.99,29.77,23,4,23,0.10
2013-4-10,45.6,41.7,38.3,42.5,39.2,36.1,93,91,86,29.97,29.86,8,0,8,0.15
2013-4-11,38.3,34.0,30.3,36.2,25.3,19.6,93,71,54,30.15,29.88,14,3,14,0.00
2013-4-12,32.9,30.7,27.7,28.9,25.4,18.4,88,81,55,30.13,29.76,47,11,47,0.23
2013-4-13,45.9,37.4,31.9,37.0,32.4,28.3,92,82,64,29.90,29.76,21,2,24,0.05
2013-4-14,34.4,33.7,33.2,32.2,31.5,30.8,92,91,90,29.89,29.87,3,0,3,0.00
2013-4-15,40.4,34.7,27.0,34.0,30.8,24.7,92,86,67,30.23,29.87,4,1,10,0.07
2013-4-16,57.1,50.9,24.9,50.9,45.5,22.6,92,83,49,30.33,29.93,20,4,20,0.44
2013-4-17,51.9,43.2,32.6,42.9,32.2,27.2,88,67,43,30.33,30.03,22,4,22,0.00
2013-4-18,58.2,47.8,32.0,47.5,33.7,25.9,83,59,46,30.33,29.94,26,4,26,0.00
2013-4-19,70.5,62.0,43.0,59.4,53.3,39.6,89,74,57,29.95,29.42,25,6,25,0.90
2013-4-20,46.7,39.5,31.2,39.7,28.9,18.5,92,67,45,30.23,29.60,19,2,19,0.03
2013-4-21,42.4,32.5,25.2,22.2,16.2,6.9,70,53,25,30.67,30.23,18,4,18,0.00
2013-4-22,51.4,39.7,25.9,25.5,18.2,13.9,70,43,27,30.70,30.52,28,5,28,0.00
2013-4-23,46.1,38.0,30.4,36.1,30.5,24.5,85,74,67,30.52,30.12,24,4,24,0.00
2013-4-24,70.0,54.8,33.7,48.7,40.4,30.5,92,63,32,30.12,29.62,15,2,15,0.00
2013-4-25,62.1,43.6,30.6,51.6,32.0,25.7,85,65,41,30.26,29.62,21,3,21,0.07
2013-4-26,53.4,42.6,29.3,35.5,29.0,24.2,85,60,43,30.43,30.24,14,2,14,0.00
2013-4-27,57.4,43.3,27.9,36.5,27.1,14.7,90,59,21,30.43,30.28,12,1,12,0.00
2013-4-28,68.0,51.6,30.8,40.8,33.1,26.4,85,54,28,30.30,30.10,12,2,12,0.00
2013-4-29,67.7,53.5,31.0,46.4,39.6,26.8,85,61,28,30.29,30.10,15,2,15,0.00
2013-4-30,68.6,56.2,43.8,51.2,43.5,35.4,83,64,43,30.25,30.11,13,1,15,0.00
2013-5-1,74.2,58.6,38.6,44.2,37.3,29.4,87,50,20,30.39,30.25,14,2,14,0.00
2013-5-2,78.3,60.4,41.4,46.5,39.6,32.8,82,49,29,30.40,30.26,35,4,35,0.00
2013-5-3,67.0,55.5,43.3,41.3,35.5,27.7,71,48,29,30.43,30.29,29,4,29,0.00
2013-5-4,73.1,57.2,38.7,47.0,40.3,34.1,91,58,26,30.32,30.15,16,2,16,0.00
2013-5-5,73.6,59.8,38.0,41.9,34.8,30.4,82,43,21,30.22,30.09,13,2,13,0.00
2013-5-6,74.0,57.1,38.3,46.0,34.3,17.2,84,48,12,30.17,30.03,12,1,12,0.00
2013-5-7,78.2,61.7,43.1,49.7,41.2,34.9,90,52,24,30.10,29.99,11,1,11,0.00
2013-5-8,73.2,59.6,45.9,57.6,51.4,40.9,91,76,47,30.11,29.97,29,5,29,0.37
2013-5-9,65.2,59.1,50.4,56.5,53.3,48.2,94,82,62,29.97,29.81,13,1,13,0.02
2013-5-10,70.5,59.4,47.2,59.3,52.8,45.3,94,80,59,29.94,29.77,12,1,12,0.00
2013-5-11,66.3,60.1,53.9,59.3,55.5,49.8,90,85,61,29.78,29.58,14,2,14,0.18
2013-5-12,55.7,49.4,39.0,49.7,39.3,25.5,89,69,36,29.74,29.57,22,2,22,0.00
2013-5-13,45.1,40.5,36.4,33.9,29.8,25.8,81,65,52,30.02,29.74,18,3,18,0.00
2013-5-14,53.1,40.3,29.1,34.8,29.7,26.4,92,69,38,30.08,29.97,14,2,18,0.01
2013-5-15,59.9,45.7,28.7,48.7,36.4,25.6,89,73,35,30.03,29.59,16,2,16,0.13
2013-5-16,72.3,55.9,41.9,48.7,41.0,34.7,92,62,26,29.83,29.60,25,3,27,0.00
2013-5-17,62.1,50.4,39.7,41.7,38.5,34.8,89,66,39,30.20,29.83,22,4,22,0.00
2013-5-18,68.5,54.2,35.6,48.1,37.7,29.0,93,60,27,30.28,30.18,13,1,13,0.00
2013-5-19,65.5,54.5,45.1,53.5,48.3,39.8,90,80,54,30.24,30.10,13,2,13,0.21
2013-5-20,67.4,59.4,54.6,61.8,56.1,51.5,92,89,81,30.10,29.93,16,1,16,0.08
2013-5-21,73.5,65.1,55.8,65.7,60.1,52.7,94,84,68,29.94,29.76,30,3,30,0.65
2013-5-22,76.0,65.5,54.0,67.8,60.9,51.3,95,85,72,29.82,29.71,19,3,19,0.42
2013-5-23,73.9,68.4,59.5,66.5,62.1,57.2,92,81,69,29.75,29.65,15,3,15,0.46
2013-5-24,59.5,47.4,40.9,57.2,45.2,38.8,93,92,90,29.95,29.59,20,4,20,0.79
2013-5-25,41.6,38.9,33.8,39.5,36.7,31.5,92,92,90,29.94,29.86,0,0,0,1.11
2013-5-26,43.4,39.1,33.5,40.5,36.8,31.3,97,91,86,30.09,29.80,0,0,0,0.23
2013-5-27,63.4,47.7,31.7,45.0,36.4,29.9,94,70,35,30.17,30.07,19,2,19,0.00
2013-5-28,69.8,54.5,35.9,51.3,41.3,33.5,93,66,28,30.20,30.08,12,1,12,0.00
2013-5-29,67.8,59.5,52.2,64.3,55.7,45.7,92,87,67,30.08,29.91,15,2,15,0.22
2013-5-30,83.0,69.5,53.6,67.1,61.9,47.9,93,79,52,30.05,29.91,11,1,15,0.22
2013-5-31,86.5,72.5,57.7,68.5,62.6,55.6,96,73,47,30.04,29.86,15,1,15,0.00
2013-6-1,85.5,73.2,61.7,72.2,65.5,59.0,93,78,51,29.89,29.75,15,1,15,0.15
2013-6-2,81.0,70.7,62.4,69.6,65.0,58.0,93,83,65,29.78,29.60,17,2,17,0.68
2013-6-3,69.7,61.0,46.9,58.8,52.0,40.4,93,74,46,29.82,29.72,16,1,16,0.00
2013-6-4,61.7,50.6,38.2,45.8,42.0,35.5,97,74,53,30.09,29.82,22,3,22,0.00
2013-6-5,66.3,54.7,40.0,48.7,41.6,28.6,92,66,27,30.17,30.08,13,1,14,0.00
2013-6-6,68.5,59.5,51.6,51.3,45.2,36.3,87,60,44,30.13,30.01,10,2,15,0.05
2013-6-7,53.7,50.8,48.8,50.2,47.4,44.8,92,88,86,30.01,29.81,29,8,33,0.48
2013-6-8,58.2,55.0,51.2,55.8,52.6,48.1,93,92,89,30.00,29.72,17,1,25,0.17
2013-6-9,72.2,60.7,51.4,59.1,53.8,48.6,94,80,50,30.15,29.99,15,1,15,0.00
2013-6-10,69.5,59.2,48.1,56.9,51.8,45.9,94,78,50,30.17,29.88,27,3,27,0.21
2013-6-11,56.8,54.8,53.0,53.5,51.8,49.8,93,90,86,29.88,29.53,35,8,35,0.95
2013-6-12,62.9,55.8,50.4,55.0,51.6,47.9,94,87,68,29.82,29.56,0,0,0,0.07
2013-6-13,64.5,55.6,46.9,54.1,50.3,44.8,94,83,60,29.80,29.65,0,0,0,0.08
2013-6-14,70.4,59.9,48.7,57.9,51.7,46.7,94,76,50,29.83,29.66,0,0,0,0.00
2013-6-15,71.0,57.5,41.4,52.6,45.4,39.0,93,68,40,29.92,29.82,13,1,13,0.00
2013-6-16,68.2,57.7,46.5,57.5,51.8,43.4,92,82,55,29.91,29.66,16,2,16,0.16
2013-6-17,73.3,61.7,51.4,61.0,56.2,49.2,94,83,61,29.89,29.74,23,2,23,0.11
2013-6-18,64.9,55.9,44.9,53.8,50.1,42.1,92,82,52,29.95,29.86,11,1,11,0.06
2013-6-19,64.7,52.8,38.7,49.3,42.7,36.5,93,71,42,30.17,29.95,17,2,17,0.01
2013-6-20,71.5,57.4,40.2,53.7,45.3,37.8,93,68,36,30.23,30.16,11,1,11,0.00
2013-6-21,77.2,63.2,45.9,60.2,51.8,43.1,94,70,42,30.23,30.17,10,1,11,0.00
2013-6-22,78.0,66.6,55.1,66.9,60.6,51.6,91,82,62,30.18,30.04,19,1,19,0.10
2013-6-23,83.0,71.5,65.5,73.4,66.2,62.5,92,84,69,30.06,29.90,18,2,18,0.58
2013-6-24,83.8,72.5,64.9,72.6,66.7,62.2,92,83,65,29.95,29.84,16,2,16,0.26
2013-6-25,82.0,70.6,63.9,71.6,65.8,61.8,93,85,65,29.89,29.69,19,1,19,0.65
2013-6-26,73.8,67.6,62.3,67.3,64.5,60.0,94,90,73,29.76,29.68,9,0,9,0.21
2013-6-27,80.8,71.6,62.3,69.6,66.0,60.0,94,83,59,29.76,29.64,17,1,17,0.16
2013-6-28,76.7,67.2,60.2,66.1,62.2,57.0,92,84,65,29.64,29.36,32,7,32,0.52
2013-6-29,77.5,68.7,60.3,66.4,63.0,57.2,94,83,62,29.62,29.36,24,2,32,0.09
2013-6-30,80.5,70.2,63.8,68.7,63.3,59.3,94,80,55,29.87,29.42,9,1,16,0.34
2013-7-1,72.1,67.6,63.9,67.7,64.6,61.8,94,90,82,30.00,29.86,11,0,11,0.23
2013-7-2,72.2,63.7,60.6,68.7,61.6,58.6,95,93,88,30.07,29.98,8,0,8,0.45
2013-7-3,72.0,63.6,60.8,68.3,61.5,58.8,94,93,88,30.07,29.99,2,0,4,0.45
2013-7-9,83.3,75.8,69.0,71.0,68.1,65.5,94,78,62,30.02,29.93,16,2,16,0.00
2013-7-10,76.1,72.1,69.0,71.0,68.1,65.5,92,87,81,29.94,29.68,13,2,13,1.31
2013-7-11,76.9,69.7,57.0,69.8,63.6,54.2,93,82,54,29.96,29.68,11,2,16,0.27
2013-7-12,77.0,65.4,53.2,64.9,58.1,51.2,94,79,55,30.16,29.96,11,1,11,0.00
2013-7-13,76.2,67.5,57.1,67.3,61.3,54.8,94,81,63,30.25,30.16,13,1,13,0.00
2013-7-14,83.2,73.4,65.4,71.7,67.6,62.9,94,83,59,30.26,30.17,10,0,10,0.00
2013-7-15,87.2,74.9,63.5,71.8,65.9,61.4,95,76,48,30.18,30.08,12,1,12,0.00
2013-7-16,84.8,74.3,62.6,69.3,65.1,60.2,93,75,50,30.17,30.11,17,2,17,0.00
2013-7-17,88.0,77.0,63.7,74.7,68.5,61.0,93,76,57,30.15,29.92,13,1,13,0.00
2013-7-18,86.5,73.9,65.6,74.7,68.8,63.5,94,85,63,29.99,29.87,13,1,13,0.60
2013-7-19,88.0,76.8,68.5,76.1,70.3,66.3,94,81,61,29.88,29.61,17,2,17,0.29
2013-7-20,77.6,71.7,64.5,70.0,66.1,61.8,92,83,71,29.77,29.60,14,1,14,0.07
2013-7-21,74.3,65.6,58.2,62.0,59.0,55.3,93,81,56,29.97,29.76,12,1,12,0.00
2013-7-22,79.5,68.2,55.4,67.9,60.8,52.1,92,78,61,29.97,29.79,10,1,10,0.00
2013-7-23,75.3,68.2,63.7,67.5,64.4,61.1,93,88,72,29.79,29.50,9,0,9,1.48
2013-7-24,66.0,60.8,47.7,64.1,56.2,44.2,94,85,70,29.99,29.53,18,2,18,0.06
2013-7-25,68.8,55.8,40.0,57.1,48.9,37.8,93,79,61,30.10,29.99,10,1,10,0.01
2013-7-26,68.8,59.9,51.3,60.8,55.2,49.1,94,85,71,30.08,29.98,12,1,12,0.00
2013-7-27,77.3,64.2,48.5,63.8,55.6,46.5,94,76,49,30.02,29.92,10,1,10,0.00
2013-7-28,74.3,67.5,58.7,66.0,61.8,55.7,93,82,71,29.94,29.85,13,2,13,0.58
2013-7-29,76.3,68.7,59.4,64.6,60.5,53.9,93,77,49,30.02,29.89,12,1,12,0.02
2013-7-30,75.6,64.0,53.2,64.2,56.1,50.9,93,77,49,30.08,29.90,11,1,12,0.00
2013-7-31,75.6,64.3,51.8,61.5,55.9,49.8,93,76,48,30.10,29.98,9,1,11,0.00
2013-8-1,75.0,64.2,55.6,63.6,59.0,53.1,93,84,61,29.99,29.78,14,2,16,0.29
2013-8-2,75.6,66.5,57.9,62.6,58.5,52.7,94,77,47,29.79,29.74,15,1,15,0.01
2013-8-3,73.4,63.0,55.8,60.4,55.8,53.2,92,79,52,29.81,29.73,15,2,18,0.28
2013-8-4,68.2,58.8,50.2,58.6,53.3,48.0,94,83,62,29.90,29.78,17,2,17,0.14
2013-8-5,67.0,57.6,47.3,51.6,46.1,35.7,89,69,37,30.03,29.89,20,3,20,0.00
2013-8-6,72.7,59.8,46.5,57.8,50.3,44.0,93,74,46,30.09,30.02,7,0,11,0.00
2013-8-7,75.2,65.7,52.3,60.7,56.8,49.4,92,74,53,30.10,29.97,16,2,16,0.00
2013-8-8,79.5,71.9,67.1,68.4,65.3,60.1,88,80,68,29.97,29.89,14,2,14,0.00
2013-8-9,76.1,71.2,68.7,70.6,67.7,65.4,93,89,78,29.90,29.71,9,1,9,1.18
2013-8-10,71.2,64.0,50.4,66.4,54.6,47.4,93,74,44,29.99,29.75,17,2,17,0.00
2013-8-11,72.9,60.6,47.1,57.2,51.9,44.9,93,75,47,30.05,29.95,9,1,9,0.00
2013-8-12,74.8,63.4,49.3,61.6,55.6,46.7,93,77,55,29.99,29.86,13,1,13,0.00
2013-8-13,69.8,63.3,58.5,63.8,59.4,55.0,92,87,74,29.87,29.64,12,1,12,0.25
2013-8-14,64.7,56.5,46.5,59.4,51.2,44.0,91,83,69,29.94,29.65,17,2,17,0.02
2013-8-15,70.2,56.2,42.7,55.1,48.5,40.6,94,78,50,30.08,29.94,13,1,13,0.01
2013-8-16,72.8,59.5,45.9,59.2,52.2,43.7,94,78,51,30.18,30.06,10,1,10,0.00
2013-8-17,74.1,61.9,49.7,60.7,54.6,47.4,93,78,53,30.25,30.18,10,1,10,0.00
2013-8-18,73.3,62.6,52.7,61.2,55.6,50.5,94,79,49,30.23,30.05,10,0,10,0.01
2013-8-19,77.5,64.5,52.1,64.9,56.7,49.8,94,78,53,30.06,29.93,10,1,10,0.00
2013-8-20,79.5,66.9,54.1,66.4,59.1,51.9,94,78,55,30.07,29.97,6,0,8,0.00
2013-8-21,80.7,69.0,55.4,67.4,61.4,53.1,93,78,60,30.11,29.96,10,1,10,0.00
2013-8-22,80.8,68.7,57.9,67.3,62.5,55.6,95,82,60,29.98,29.75,14,1,14,0.22
2013-8-23,67.4,60.1,47.5,62.2,54.0,44.6,93,81,57,30.15,29.82,14,2,14,0.01
2013-8-24,72.5,57.4,42.4,56.8,48.5,40.3,94,75,39,30.32,30.15,9,1,9,0.01
2013-8-25,73.5,61.0,45.0,59.5,52.2,42.7,94,75,48,30.34,30.11,9,1,9,0.03
2013-8-26,71.0,65.9,60.7,66.3,61.7,57.4,92,87,81,30.12,29.84,12,1,12,0.66
2013-8-27,78.1,69.5,63.9,68.9,65.5,61.5,94,88,70,29.87,29.81,5,1,10,0.25
2013-8-28,79.0,69.2,60.2,71.9,65.0,58.1,94,87,69,29.91,29.81,19,1,19,0.19
2013-8-29,75.5,67.4,59.1,66.4,61.9,56.5,93,83,68,30.00,29.89,22,2,22,0.00
2013-8-30,79.9,68.8,59.0,69.0,63.1,57.0,94,83,66,30.00,29.73,10,1,15,0.00
2013-8-31,79.5,69.0,59.0,70.1,66.0,57.0,94,90,68,29.92,29.69,11,1,11,0.90
2013-9-1,78.7,70.8,66.6,70.3,66.7,63.9,95,87,71,29.82,29.74,8,0,8,0.01
2013-9-2,77.7,70.1,61.5,68.4,65.7,59.1,93,86,67,29.78,29.62,18,1,18,0.30
2013-9-3,70.3,63.3,58.5,62.4,59.1,55.8,94,87,71,29.77,29.65,14,1,14,0.06
2013-9-4,72.7,62.5,54.5,60.3,56.5,52.4,94,82,60,29.87,29.77,15,1,15,0.02
2013-9-5,61.1,54.2,40.6,57.2,45.9,37.9,93,75,48,30.14,29.82,17,2,17,0.21
2013-9-6,62.6,50.0,36.0,47.2,40.4,33.9,94,73,45,30.24,30.05,10,1,10,0.01
2013-9-7,67.2,57.1,47.3,56.1,48.5,43.9,92,74,50,30.06,29.82,12,1,12,0.01
2013-9-8,58.8,52.9,40.2,53.5,45.0,37.3,91,75,56,30.08,29.73,25,3,25,0.13
2013-9-9,65.0,51.1,36.0,51.3,42.5,33.9,93,74,50,30.19,30.06,12,1,12,0.00
2013-9-10,73.4,64.6,56.1,70.0,60.7,51.3,92,87,75,30.07,29.95,13,2,13,0.52
2013-9-11,85.5,76.1,67.4,76.0,70.8,63.8,93,84,69,29.99,29.84,20,2,20,0.35
2013-9-12,78.5,69.7,64.5,69.9,65.3,62.3,93,86,73,29.88,29.57,14,2,14,0.42
2013-9-13,64.4,56.2,49.1,62.3,54.0,47.2,93,92,90,29.81,29.55,16,3,16,0.15
2013-9-14,59.3,50.5,43.5,50.9,47.1,41.3,94,88,69,30.06,29.80,13,2,13,0.01
2013-9-15,62.4,51.0,37.0,53.0,46.0,35.1,94,84,66,30.13,30.00,11,1,11,0.01
2013-9-16,52.8,46.6,32.8,50.8,43.1,30.5,93,88,68,30.29,29.98,17,2,17,0.18
2013-9-17,58.4,43.9,30.7,47.1,38.1,28.9,94,81,60,30.46,30.29,11,1,11,0.00
2013-9-18,66.1,50.8,37.1,51.3,42.5,35.3,94,76,44,30.32,30.12,10,1,10,0.01
2013-9-19,72.3,55.8,41.6,56.6,47.7,39.7,94,77,43,30.14,30.01,8,1,8,0.01
2013-9-20,75.7,60.4,46.3,60.3,52.3,44.4,98,77,40,30.06,29.90,13,1,13,0.00
2013-9-21,72.1,64.5,56.3,58.9,54.6,45.5,87,71,41,29.90,29.55,27,4,27,0.07
2013-9-22,62.9,53.3,44.3,59.3,49.0,39.9,92,85,74,29.84,29.51,16,3,16,0.06
2013-9-23,48.3,43.2,39.5,40.2,37.9,35.6,89,82,70,30.03,29.84,22,4,22,0.00
2013-9-24,57.8,48.1,42.6,45.2,40.3,37.6,90,75,54,30.02,29.88,20,3,20,0.00
2013-9-25,61.4,49.1,36.1,49.6,43.2,34.0,94,81,62,29.98,29.90,14,2,14,0.00
2013-9-26,60.2,48.7,35.5,49.5,43.1,33.1,94,82,63,30.15,29.98,12,2,15,0.00
2013-9-27,61.5,52.4,43.5,52.1,47.7,40.8,91,84,70,30.27,30.14,11,1,13,0.00
2013-9-28,69.0,53.5,39.8,56.4,47.3,38.0,94,81,55,30.34,30.23,9,1,9,0.00
2013-9-29,69.4,55.7,40.0,56.3,49.3,38.1,95,81,56,30.33,30.04,7,1,9,0.01
2013-9-30,69.2,54.9,42.4,56.3,48.9,40.4,94,82,60,30.20,29.95,9,1,9,0.01
2013-10-1,71.8,56.7,42.3,58.2,50.6,40.4,94,81,59,29.98,29.85,8,1,10,0.00
2013-10-2,73.8,59.0,48.5,61.2,53.3,45.8,94,82,55,29.95,29.80,7,1,16,0.01
2013-10-3,68.3,54.3,42.7,53.6,46.2,40.8,94,77,44,30.07,29.95,11,1,11,0.01
2013-10-4,65.7,53.5,42.7,54.8,48.7,40.5,94,85,59,30.07,30.01,12,1,12,0.00
2013-10-5,61.3,55.9,53.4,53.6,51.5,48.6,92,86,74,30.10,30.03,9,1,11,0.01
2013-10-6,55.5,52.0,48.6,50.7,45.4,37.0,91,79,52,30.10,30.01,32,5,32,0.14
2013-10-7,72.2,59.2,51.5,63.2,54.5,45.2,92,85,68,30.01,29.56,33,5,33,0.98
2013-10-8,56.2,47.5,35.5,46.1,39.0,32.9,94,74,47,30.36,29.85,15,2,15,0.00
2013-10-9,62.5,47.0,34.1,44.0,37.0,31.9,93,71,40,30.44,30.33,13,1,13,0.00
2013-10-10,64.5,49.0,34.9,46.9,39.5,32.8,93,73,39,30.33,30.16,7,1,9,0.00
2013-10-11,71.4,54.0,42.5,50.3,42.5,34.1,87,69,27,30.17,30.09,10,1,10,0.00
2013-10-12,65.5,53.7,40.8,53.0,47.0,37.5,90,79,60,30.32,30.15,19,4,22,0.00
2013-10-13,66.7,54.9,45.2,48.7,46.3,41.6,89,74,48,30.36,30.27,19,3,19,0.00
2013-10-14,55.6,51.8,44.7,51.9,48.6,41.4,93,89,83,30.30,30.21,7,1,9,0.04
2013-10-15,62.4,56.1,52.1,55.2,51.9,49.8,94,86,73,30.25,30.06,15,2,15,0.00
2013-10-16,62.5,57.4,53.3,52.6,49.8,46.6,87,77,56,30.07,29.78,12,3,15,0.01
2013-10-17,62.3,56.3,48.3,53.2,50.0,44.5,91,80,57,29.80,29.63,11,2,13,0.19
2013-10-18,57.7,51.6,47.5,49.0,44.8,35.7,93,78,58,29.86,29.54,16,3,16,0.11
2013-10-19,59.4,48.2,35.2,44.9,40.6,32.8,93,76,57,29.89,29.63,15,1,15,0.09
2013-10-20,52.1,47.0,35.7,46.2,38.2,32.2,88,72,52,29.97,29.61,17,3,17,0.05
2013-10-21,58.0,46.1,31.7,43.0,37.1,29.6,94,73,52,30.05,29.86,12,1,12,0.00
2013-10-22,54.6,47.1,30.9,45.4,38.2,27.6,89,72,54,29.86,29.65,17,3,17,0.02
2013-10-23,46.9,39.4,31.8,35.3,32.3,28.3,89,76,57,29.74,29.59,9,1,9,0.01
2013-10-24,40.8,36.0,29.4,35.7,31.7,27.0,96,84,73,29.86,29.64,15,2,16,0.05
2013-10-25,41.5,35.9,32.1,32.7,29.4,25.5,92,78,59,30.09,29.86,17,2,17,0.01
2013-10-26,43.4,37.7,28.4,33.3,30.3,25.0,89,75,54,30.10,29.78,21,3,21,0.01
2013-10-27,43.2,38.9,29.4,35.9,31.3,25.8,92,74,62,30.00,29.73,15,2,15,0.01
2013-10-28,41.1,35.0,23.1,37.4,29.1,19.8,95,79,54,30.35,29.99,21,2,21,0.05
2013-10-29,40.0,27.9,18.5,27.3,20.9,15.8,98,76,40,30.45,30.33,9,1,10,0.00
2013-10-30,43.3,34.1,18.6,35.0,27.9,15.9,90,78,44,30.45,30.17,7,0,10,0.03
2013-10-31,58.4,45.4,31.0,55.4,41.9,22.1,94,88,62,30.28,29.60,18,2,18,0.55
2013-11-1,63.2,58.5,50.6,58.7,51.2,41.6,90,78,48,29.60,29.26,28,5,28,0.55
2013-11-2,51.7,44.2,33.9,43.6,39.2,31.3,92,83,69,29.82,29.56,16,2,16,0.08
2013-11-3,34.0,30.0,26.1,31.4,23.0,17.3,92,76,52,30.21,29.81,20,4,20,0.08
2013-11-4,33.1,29.1,26.1,26.0,20.8,17.8,85,72,53,30.20,29.93,18,4,20,0.00
2013-11-5,46.2,40.7,33.1,35.0,31.7,27.5,84,71,57,30.54,30.43,14,2,14,0.00
2013-11-6,54.8,47.2,35.1,45.3,39.4,30.9,87,74,61,30.43,29.87,15,3,23,0.00
2013-11-7,53.9,44.8,30.3,49.6,40.5,23.7,91,85,73,29.87,29.68,17,4,17,0.01
2013-11-8,34.7,31.2,26.9,30.6,25.4,21.9,91,79,66,30.08,29.79,17,3,18,0.00
2013-11-9,36.9,32.9,26.6,30.8,24.0,20.4,89,70,55,30.17,29.90,9,2,13,0.00
2013-11-10,41.7,37.5,33.4,36.9,33.4,29.6,96,85,78,29.90,29.68,18,3,18,0.01
2013-11-11,39.1,35.4,30.5,32.7,28.1,25.1,82,75,66,30.06,29.82,24,3,24,0.00
2013-11-12,38.3,24.5,20.4,32.9,18.0,13.8,90,76,67,30.23,29.83,18,5,18,0.00
2013-11-13,28.4,22.5,15.9,20.0,14.3,10.7,85,71,53,30.31,30.07,14,2,14,0.00
2013-11-14,40.4,33.5,27.2,29.9,22.7,18.6,78,65,43,30.07,30.02,14,2,14,0.00
2013-11-15,49.4,39.8,32.0,27.1,20.6,16.0,77,48,32,30.16,30.05,13,2,13,0.00
2013-11-16,53.3,39.9,31.4,32.2,28.1,25.3,86,65,36,30.27,30.14,10,1,10,0.00
2013-11-17,53.7,46.3,32.0,49.5,40.6,28.3,88,81,59,30.24,29.66,23,4,23,0.01
2013-11-18,59.9,49.1,36.8,55.5,40.5,28.6,88,73,49,29.66,29.36,20,4,24,0.02
2013-11-19,36.8,28.7,23.8,28.5,19.4,15.6,87,68,62,30.34,29.60,20,6,24,0.00
2013-11-20,32.4,24.0,17.3,20.1,17.3,14.1,87,76,57,30.63,30.34,13,2,13,0.00
2013-11-21,40.7,29.0,16.4,27.7,16.3,6.7,88,63,24,30.62,30.34,10,1,12,0.00
2013-11-22,41.4,38.0,33.5,39.5,35.0,27.0,93,89,76,30.34,29.78,12,1,12,0.01
2013-11-23,40.8,28.2,18.0,38.7,22.8,12.2,92,80,60,29.92,29.73,18,3,18,0.00
2013-11-24,17.9,13.8,8.9,12.1,3.3,-3.6,83,63,49,30.24,29.80,29,8,29,0.00
2013-11-25,27.4,14.4,-1.2,14.8,4.6,-5.5,92,66,45,30.39,30.18,13,2,13,0.00
2013-11-26,32.0,28.6,25.2,29.1,23.0,13.5,89,80,55,30.26,29.94,21,2,21,0.00
2013-11-27,42.0,34.1,27.3,39.3,31.8,25.3,93,91,88,29.94,29.33,35,6,43,0.00
2013-11-28,27.2,15.9,4.2,25.2,11.2,0.9,92,82,64,30.41,29.47,13,2,19,0.00
2013-11-29,22.4,9.8,1.8,20.2,4.8,-1.7,91,80,59,30.77,29.62,12,1,19,0.00
2013-11-30,26.8,14.7,0.6,17.3,6.6,-3.1,88,71,54,30.79,30.35,13,2,18,0.00
2013-12-1,36.7,32.1,26.9,29.8,26.7,17.8,89,80,68,30.34,30.00,10,2,13,0.00
2013-12-2,37.2,34.2,32.0,32.9,30.5,28.0,90,86,83,30.00,29.87,16,3,16,0.00
2013-12-3,41.1,33.5,28.0,35.1,29.6,25.3,93,86,74,29.96,29.87,8,1,10,0.00
2013-12-4,36.6,30.4,23.8,27.7,24.9,19.7,92,80,68,30.14,29.95,10,1,10,0.00
2013-12-5,53.7,45.3,29.7,50.2,41.6,26.0,92,87,82,30.13,29.81,23,3,23,0.00
2013-12-6,51.5,36.1,29.5,49.2,33.0,26.3,92,89,82,30.10,29.83,8,0,8,0.00
2013-12-7,29.6,25.8,21.3,26.8,18.9,13.4,89,75,57,30.43,30.06,19,3,19,0.00
2013-12-8,24.4,21.6,19.0,15.3,13.1,10.9,76,70,59,30.55,30.42,10,1,13,0.00
2013-12-9,37.7,28.5,20.5,34.2,24.0,12.8,92,83,67,30.43,29.85,31,4,34,0.00
2013-12-10,32.8,26.3,18.6,29.1,18.1,9.3,86,71,60,29.90,29.73,23,2,23,0.00
2013-12-11,23.5,19.4,15.0,16.1,12.1,7.9,82,73,65,30.13,29.90,18,2,18,0.00
2013-12-12,14.8,11.1,3.5,8.1,2.5,-3.7,82,69,49,30.26,29.95,15,2,15,0.00
2013-12-13,14.1,9.2,-6.0,10.6,4.3,-10.3,87,80,73,30.42,29.89,12,2,12,0.00
2013-12-14,10.8,1.7,-8.8,7.6,-4.5,-13.1,87,75,54,30.60,30.08,45,4,45,0.00
2013-12-15,21.9,18.6,10.9,19.3,15.7,7.8,90,88,84,30.07,29.53,48,10,52,0.00
2013-12-16,18.7,10.4,-8.2,15.6,5.1,-12.5,89,79,68,30.20,29.67,21,2,21,0.00
2013-12-17,15.9,2.3,-12.4,11.4,-2.6,-16.8,92,80,65,30.23,30.02,19,4,23,0.00
2013-12-18,25.2,19.1,8.0,20.3,15.5,4.7,92,85,79,30.02,29.92,11,0,11,0.00
2013-12-19,33.9,28.7,23.4,29.0,23.0,20.0,89,79,68,30.05,29.90,12,2,13,0.00
2013-12-20,43.3,38.0,31.6,38.9,33.4,28.0,92,84,69,30.05,29.84,14,2,14,0.00
2013-12-21,50.5,43.4,29.2,47.3,40.6,27.2,92,90,87,29.86,29.76,18,2,18,0.00
2013-12-22,54.4,35.6,24.9,50.4,33.4,22.9,95,92,83,29.92,29.58,13,0,13,0.00
2013-12-23,40.7,35.8,26.7,39.0,34.0,23.8,94,93,89,30.11,29.91,7,0,7,0.00
2013-12-24,26.6,18.0,5.5,23.8,13.9,2.0,89,84,74,30.26,30.07,0,0,0,0.00
2013-12-25,14.5,7.1,-1.2,8.7,2.2,-4.8,95,80,71,30.52,30.26,0,0,0,0.00
2013-12-26,25.6,21.9,14.2,22.2,17.2,6.9,89,82,67,30.39,30.08,0,0,0,0.00
2013-12-27,26.6,23.8,17.8,23.2,19.4,14.6,92,83,73,30.19,30.13,7,1,13,0.00
2013-12-28,35.9,30.7,17.8,31.5,26.1,14.6,90,83,77,30.13,29.97,17,2,17,0.00
2013-12-29,42.7,35.4,28.7,32.9,29.8,25.9,92,81,58,29.98,29.55,10,1,14,0.00
2013-12-30,42.0,22.0,3.8,32.8,17.6,-0.9,93,83,63,30.14,29.55,14,3,16,0.00
2013-12-31,34.3,10.5,3.7,32.5,5.7,-1.5,93,80,68,30.15,29.58,13,1,17,0.00
2014-1-1,15.9,10.3,1.5,9.2,3.9,-3.2,85,75,58,30.38,30.12,14,2,14,0.00
2014-1-2,2.7,-1.4,-7.6,-1.5,-6.2,-12.1,92,79,73,30.38,29.96,6,0,6,0.00